Time;durP1;ratioP1;P1;durP2;ratioP2;P2;SDS_P1;SDS_P2;PMS_P1;PMS_P2;Temp;Humidity;BMP_temperature;BMP_pressure;BME280_temperature;BME280_humidity;BME280_pressure;Samples;Min_cycle;Max_cycle;Signal;HPM_P1;HPM_P2
2022/08/08 00:01:57;;;;;;;9.80;6.53;;;27.30;31.80;;;;;;5130206;27;45436;-71
2022/08/08 00:04:26;;;;;;;8.15;6.35;;;27.30;31.90;;;;;;5129676;27;46387;-71
2022/08/08 00:06:57;;;;;;;7.93;6.07;;;27.30;31.90;;;;;;5129491;27;45353;-71
2022/08/08 00:09:26;;;;;;;9.27;6.32;;;27.30;32.00;;;;;;5129675;27;45233;-70
2022/08/08 00:11:57;;;;;;;8.50;6.30;;;27.20;31.80;;;;;;5130073;27;45308;-71
2022/08/08 00:14:30;;;;;;;7.22;5.70;;;27.20;32.10;;;;;;5129559;27;46979;-71
2022/08/08 00:17:02;;;;;;;6.97;5.68;;;27.20;32.00;;;;;;5129614;27;45164;-71
2022/08/08 00:19:30;;;;;;;8.50;6.22;;;27.20;32.30;;;;;;5127639;27;45468;-71
2022/08/08 00:22:02;;;;;;;8.75;6.07;;;27.20;32.20;;;;;;5109234;27;45205;-71
2022/08/08 00:24:32;;;;;;;9.15;5.95;;;27.20;32.40;;;;;;5108865;27;46503;-71
2022/08/08 00:27:01;;;;;;;7.65;5.90;;;27.10;32.10;;;;;;5108784;27;45187;-71
2022/08/08 00:29:30;;;;;;;7.68;5.68;;;27.10;32.10;;;;;;5113625;27;45330;-71
2022/08/08 00:32:00;;;;;;;6.88;5.55;;;27.10;32.20;;;;;;5129713;27;45167;-71
2022/08/08 00:37:27;;;;;;;7.82;5.55;;;27.00;32.30;;;;;;5129211;27;45329;-71
2022/08/08 00:39:57;;;;;;;6.55;5.18;;;27.00;32.30;;;;;;5129348;27;45224;-71
2022/08/08 00:42:45;;;;;;;8.23;5.65;;;27.00;32.40;;;;;;5129658;27;45292;-71
2022/08/08 00:45:36;;;;;;;7.32;5.15;;;27.00;32.50;;;;;;5129024;27;46410;-71
2022/08/08 00:48:45;;;;;;;7.25;5.38;;;27.00;32.40;;;;;;5119404;27;45382;-71
2022/08/08 00:51:40;;;;;;;7.32;4.63;;;26.90;32.20;;;;;;5085477;28;45296;-71
2022/08/08 00:54:32;;;;;;;5.82;4.85;;;26.90;32.30;;;;;;5126964;27;45527;-71
2022/08/08 00:57:12;;;;;;;6.80;4.50;;;26.90;32.50;;;;;;5128825;27;46668;-71
2022/08/08 01:00:09;;;;;;;6.10;4.97;;;26.90;32.50;;;;;;5128958;27;45196;-71
2022/08/08 01:03:22;;;;;;;5.85;4.80;;;26.90;32.30;;;;;;5104623;27;45349;-71
2022/08/08 01:06:22;;;;;;;6.10;4.75;;;26.80;32.30;;;;;;5129156;27;45454;-71
2022/08/08 01:09:25;;;;;;;4.63;3.78;;;26.80;32.50;;;;;;5128917;27;45318;-71
2022/08/08 01:12:24;;;;;;;5.68;4.55;;;26.80;32.50;;;;;;5128728;27;45291;-71
2022/08/08 01:15:19;;;;;;;5.53;4.35;;;26.80;32.60;;;;;;5128929;27;45129;-71
2022/08/08 01:18:14;;;;;;;4.47;3.95;;;26.70;32.60;;;;;;5129012;27;45408;-71
2022/08/08 01:20:47;;;;;;;5.70;3.90;;;26.70;32.60;;;;;;5116228;27;45736;-71
2022/08/08 01:23:59;;;;;;;4.57;4.07;;;26.70;32.70;;;;;;5107888;27;45261;-71
2022/08/08 01:26:39;;;;;;;5.03;4.35;;;26.70;32.60;;;;;;5049777;27;45271;-70
2022/08/08 01:29:35;;;;;;;4.85;3.95;;;26.60;32.60;;;;;;5109599;27;45360;-71
2022/08/08 01:32:27;;;;;;;5.22;3.92;;;26.60;32.70;;;;;;5126771;27;46728;-71
2022/08/08 01:35:15;;;;;;;4.47;3.83;;;26.60;32.60;;;;;;5128145;27;45305;-71
2022/08/08 01:38:03;;;;;;;4.32;3.50;;;26.50;32.60;;;;;;5128444;27;45141;-71
2022/08/08 01:40:32;;;;;;;5.18;3.70;;;26.50;32.60;;;;;;5128522;27;45122;-71
2022/08/08 01:43:04;;;;;;;5.00;3.85;;;26.50;32.50;;;;;;5128200;27;46356;-70
2022/08/08 01:45:41;;;;;;;4.78;3.65;;;26.50;32.60;;;;;;5127559;27;45313;-71
2022/08/08 01:48:11;;;;;;;4.32;3.78;;;26.50;32.60;;;;;;5128240;27;45233;-70
2022/08/08 01:50:49;;;;;;;4.50;3.22;;;26.40;32.70;;;;;;5128685;27;45216;-70
2022/08/08 01:53:32;;;;;;;4.22;3.30;;;26.40;32.50;;;;;;5128094;27;45476;-70
2022/08/08 01:56:03;;;;;;;4.07;3.17;;;26.40;32.60;;;;;;5128188;27;45129;-70
2022/08/08 01:58:37;;;;;;;3.85;3.25;;;26.40;32.50;;;;;;5128182;27;45389;-70
2022/08/08 02:01:10;;;;;;;4.22;3.60;;;26.40;32.70;;;;;;5128101;27;45429;-70
2022/08/08 02:03:44;;;;;;;3.38;3.08;;;26.40;32.50;;;;;;5127953;27;47661;-71
2022/08/08 02:06:20;;;;;;;3.55;3.05;;;26.30;32.60;;;;;;5127939;27;45144;-70
2022/08/08 02:08:49;;;;;;;4.30;2.92;;;26.30;32.60;;;;;;5128096;27;45216;-71
2022/08/08 02:11:23;;;;;;;3.40;3.10;;;26.30;32.60;;;;;;5127937;27;45481;-70
2022/08/08 02:13:52;;;;;;;3.40;3.10;;;26.30;32.70;;;;;;5127520;27;46372;-70
2022/08/08 02:16:23;;;;;;;3.38;2.72;;;26.30;32.80;;;;;;5127613;27;45144;-70
2022/08/08 02:18:53;;;;;;;3.05;2.50;;;26.20;32.70;;;;;;5127827;27;45333;-70
2022/08/08 02:24:12;;;;;;;2.63;2.40;;;26.20;32.70;;;;;;5127665;27;45264;-70
2022/08/08 02:26:45;;;;;;;2.95;2.65;;;26.20;32.80;;;;;;5127634;27;45235;-71
2022/08/08 02:29:34;;;;;;;2.90;2.40;;;26.20;32.80;;;;;;5127799;27;45279;-70
2022/08/08 02:32:16;;;;;;;4.00;2.67;;;26.20;33.00;;;;;;5127750;27;45480;-70
2022/08/08 02:35:08;;;;;;;3.05;2.60;;;26.20;32.90;;;;;;5127380;27;45205;-70
2022/08/08 02:37:43;;;;;;;2.75;2.55;;;26.10;33.00;;;;;;5103712;27;45338;-71
2022/08/08 02:40:11;;;;;;;3.03;2.60;;;26.10;33.00;;;;;;5127524;27;45251;-70
2022/08/08 02:43:13;;;;;;;2.65;2.10;;;26.10;33.10;;;;;;5127643;27;45180;-70
2022/08/08 02:46:16;;;;;;;3.47;2.60;;;26.10;33.00;;;;;;5127318;27;45693;-71
2022/08/08 02:49:12;;;;;;;2.55;2.30;;;26.10;33.00;;;;;;5110194;27;45590;-70
2022/08/08 02:52:05;;;;;;;1.90;1.77;;;26.10;33.20;;;;;;5127501;27;45388;-70
2022/08/08 02:54:54;;;;;;;3.10;2.33;;;26.00;33.10;;;;;;5127583;27;45307;-70
2022/08/08 02:57:44;;;;;;;2.50;2.30;;;26.00;33.10;;;;;;5127852;27;47639;-70
2022/08/08 03:00:23;;;;;;;2.20;2.00;;;26.00;33.10;;;;;;5130788;27;45204;-71
2022/08/08 03:03:40;;;;;;;3.00;2.33;;;25.90;33.10;;;;;;5130919;27;45283;-70
2022/08/08 03:06:33;;;;;;;2.47;2.20;;;25.90;33.10;;;;;;5087500;28;45439;-70
2022/08/08 03:09:49;;;;;;;2.28;2.08;;;25.90;33.30;;;;;;5127755;27;47363;-70
2022/08/08 03:12:33;;;;;;;1.73;1.60;;;25.90;33.30;;;;;;5130685;27;45314;-70
2022/08/08 03:15:14;;;;;;;2.33;2.10;;;25.90;33.30;;;;;;5130911;27;45228;-70
2022/08/08 03:17:47;;;;;;;2.00;1.80;;;25.90;33.40;;;;;;5130987;27;45229;-71
2022/08/08 03:20:14;;;;;;;3.42;1.95;;;25.80;33.30;;;;;;5122007;27;47296;-71
2022/08/08 03:22:46;;;;;;;2.50;2.03;;;25.80;33.20;;;;;;5109897;27;45161;-71
2022/08/08 03:25:14;;;;;;;2.08;1.90;;;25.80;33.30;;;;;;5110052;27;45191;-71
2022/08/08 03:27:42;;;;;;;1.92;1.80;;;25.80;33.40;;;;;;5110310;27;45133;-71
2022/08/08 03:30:10;;;;;;;2.03;1.80;;;25.80;33.40;;;;;;5120001;27;46365;-70
2022/08/08 03:35:21;;;;;;;1.60;1.50;;;25.70;33.30;;;;;;5127686;27;45304;-71
2022/08/08 03:37:50;;;;;;;2.00;1.80;;;25.70;33.90;;;;;;5130639;27;45504;-71
2022/08/08 03:40:19;;;;;;;1.75;1.65;;;25.70;33.30;;;;;;5130174;27;45187;-71
2022/08/08 03:42:46;;;;;;;2.85;1.80;;;25.70;33.30;;;;;;5130166;27;45290;-71
2022/08/08 03:45:15;;;;;;;2.78;1.70;;;25.70;33.30;;;;;;5130416;27;45182;-71
2022/08/08 03:47:42;;;;;;;2.35;2.10;;;25.70;33.30;;;;;;5130496;27;45207;-71
2022/08/08 03:50:15;;;;;;;1.52;1.42;;;25.60;33.20;;;;;;5130057;27;45393;-71
2022/08/08 03:52:42;;;;;;;1.98;1.60;;;25.60;33.30;;;;;;5130229;27;45224;-71
2022/08/08 03:55:11;;;;;;;2.22;1.50;;;25.60;33.30;;;;;;5130287;27;45452;-71
2022/08/08 03:57:37;;;;;;;1.50;1.40;;;25.60;33.40;;;;;;5130586;27;45152;-70
2022/08/08 04:00:09;;;;;;;2.35;1.55;;;25.50;33.30;;;;;;5129537;27;47275;-70
2022/08/08 04:02:36;;;;;;;1.85;1.75;;;25.50;33.30;;;;;;5129766;27;45292;-71
2022/08/08 04:05:04;;;;;;;1.92;1.60;;;25.50;33.30;;;;;;5130181;27;45183;-71
2022/08/08 04:07:35;;;;;;;1.65;1.55;;;25.50;33.30;;;;;;5130236;27;45192;-71
2022/08/08 04:10:02;;;;;;;1.75;1.65;;;25.50;33.50;;;;;;5129375;27;45487;-71
2022/08/08 04:12:30;;;;;;;2.60;1.60;;;25.50;33.40;;;;;;5129982;27;45328;-71
2022/08/08 04:14:57;;;;;;;1.70;1.60;;;25.50;33.50;;;;;;5129995;27;45323;-71
2022/08/08 04:17:24;;;;;;;1.58;1.48;;;25.50;33.40;;;;;;5130236;27;45263;-71
2022/08/08 04:19:51;;;;;;;2.05;1.60;;;25.40;34.00;;;;;;5124438;27;47325;-71
2022/08/08 04:22:18;;;;;;;1.30;1.20;;;25.40;33.40;;;;;;5109076;27;45184;-71
2022/08/08 04:24:44;;;;;;;1.38;1.30;;;25.40;33.50;;;;;;5109115;27;45236;-71
2022/08/08 04:27:11;;;;;;;2.70;1.63;;;25.40;33.50;;;;;;5109495;27;45176;-72
2022/08/08 04:29:39;;;;;;;1.55;1.42;;;25.40;33.60;;;;;;5109011;27;46400;-71
2022/08/08 04:32:07;;;;;;;1.73;1.40;;;25.40;33.50;;;;;;5108944;27;45244;-71
2022/08/08 04:34:33;;;;;;;1.67;1.25;;;25.30;33.60;;;;;;5109102;27;45287;-71
2022/08/08 04:37:00;;;;;;;1.60;1.50;;;25.30;33.60;;;;;;5109017;27;45261;-71
2022/08/08 04:39:27;;;;;;;1.40;1.30;;;25.30;34.20;;;;;;5108415;27;46358;-71
2022/08/08 04:41:54;;;;;;;1.38;1.27;;;25.30;34.10;;;;;;5108641;27;45252;-71
2022/08/08 04:44:20;;;;;;;1.90;1.40;;;25.30;33.40;;;;;;5108807;27;45290;-72
2022/08/08 04:46:49;;;;;;;1.40;1.30;;;25.30;33.50;;;;;;5108701;27;45434;-72
2022/08/08 04:49:15;;;;;;;1.40;1.30;;;25.20;33.60;;;;;;5108239;27;45487;-71
2022/08/08 04:51:42;;;;;;;1.50;1.40;;;25.20;33.40;;;;;;5108591;27;45227;-71
2022/08/08 04:54:09;;;;;;;1.67;1.20;;;25.20;33.50;;;;;;5108751;27;45283;-71
2022/08/08 04:56:36;;;;;;;1.35;1.25;;;25.20;33.50;;;;;;5108852;27;45327;-71
2022/08/08 04:59:03;;;;;;;1.30;1.20;;;25.20;33.50;;;;;;5108368;27;46667;-71
2022/08/08 05:01:30;;;;;;;1.30;1.20;;;25.20;33.60;;;;;;5108513;27;45170;-71
2022/08/08 05:03:58;;;;;;;1.80;1.50;;;25.10;33.60;;;;;;5108637;27;45208;-71
2022/08/08 05:06:24;;;;;;;1.80;1.20;;;25.10;33.60;;;;;;5108678;27;45450;-71
2022/08/08 05:08:51;;;;;;;1.60;1.50;;;25.10;33.70;;;;;;5108446;27;47341;-71
2022/08/08 05:11:18;;;;;;;1.55;1.45;;;25.10;33.80;;;;;;5108323;27;45129;-71
2022/08/08 05:13:45;;;;;;;1.30;1.20;;;25.10;33.70;;;;;;5108563;27;45133;-71
2022/08/08 05:16:12;;;;;;;1.42;1.30;;;25.10;33.80;;;;;;5108426;27;45405;-71
2022/08/08 05:18:38;;;;;;;1.50;1.40;;;25.10;33.80;;;;;;5107891;27;45428;-71
2022/08/08 05:21:08;;;;;;;1.83;1.10;;;25.10;33.80;;;;;;5122687;27;45433;-71
2022/08/08 05:23:35;;;;;;;2.13;1.20;;;25.10;33.80;;;;;;5128957;27;45195;-71
2022/08/08 05:26:02;;;;;;;1.13;1.05;;;25.10;34.40;;;;;;5129088;27;45395;-71
2022/08/08 05:28:28;;;;;;;1.45;1.02;;;25.10;33.70;;;;;;5128680;27;46656;-71
2022/08/08 05:30:55;;;;;;;1.35;1.23;;;25.10;33.70;;;;;;5111370;27;45371;-71
2022/08/08 05:33:22;;;;;;;2.28;1.42;;;25.10;33.80;;;;;;5107678;27;45239;-71
2022/08/08 05:35:49;;;;;;;1.30;1.20;;;25.10;33.80;;;;;;5108033;27;45126;-71
2022/08/08 05:38:17;;;;;;;1.20;1.10;;;25.10;33.80;;;;;;5107811;27;45202;-71
2022/08/08 05:40:46;;;;;;;1.52;1.42;;;25.10;33.80;;;;;;5107788;27;45347;-71
2022/08/08 05:43:15;;;;;;;1.13;1.13;;;25.10;33.90;;;;;;5108088;27;45387;-71
2022/08/08 05:45:42;;;;;;;1.33;1.23;;;25.00;33.90;;;;;;5107951;27;45181;-71
2022/08/08 05:48:08;;;;;;;1.40;1.30;;;25.00;33.80;;;;;;5107764;27;45474;-71
2022/08/08 05:50:35;;;;;;;1.20;1.10;;;25.00;33.90;;;;;;5107780;27;45414;-71
2022/08/08 05:53:02;;;;;;;1.30;1.20;;;25.00;33.90;;;;;;5107890;27;45402;-71
2022/08/08 05:55:30;;;;;;;1.00;1.00;;;25.00;34.00;;;;;;5108434;27;45311;-71
2022/08/08 05:57:57;;;;;;;1.65;1.30;;;25.00;33.90;;;;;;5107650;27;47304;-71
2022/08/08 06:00:24;;;;;;;1.00;1.00;;;25.00;33.90;;;;;;5107545;27;45287;-71
2022/08/08 06:05:35;;;;;;;1.08;1.08;;;25.00;33.90;;;;;;5105226;27;45306;-71
2022/08/08 06:08:02;;;;;;;1.20;1.10;;;25.00;34.00;;;;;;5107509;27;46451;-71
2022/08/08 06:10:31;;;;;;;1.55;1.05;;;25.00;34.00;;;;;;5107469;27;45172;-71
2022/08/08 06:12:58;;;;;;;0.98;0.98;;;25.00;34.00;;;;;;5107590;27;45238;-71
2022/08/08 06:15:25;;;;;;;1.00;1.00;;;25.00;34.00;;;;;;5107504;27;45409;-71
2022/08/08 06:17:52;;;;;;;0.90;0.90;;;25.00;34.00;;;;;;5107212;27;46438;-71
2022/08/08 06:20:25;;;;;;;1.10;1.00;;;25.00;34.00;;;;;;5116264;27;45324;-72
2022/08/08 06:22:52;;;;;;;1.05;1.02;;;25.00;34.20;;;;;;5127995;27;45333;-70
2022/08/08 06:25:19;;;;;;;1.00;1.00;;;25.00;34.00;;;;;;5128029;27;45153;-72
2022/08/08 06:27:51;;;;;;;1.20;1.10;;;25.00;34.10;;;;;;5127312;27;45195;-72
2022/08/08 06:30:18;;;;;;;1.27;1.17;;;25.00;34.10;;;;;;5113280;27;45351;-71
2022/08/08 06:32:48;;;;;;;1.10;1.02;;;25.00;34.00;;;;;;5107005;27;45146;-72
2022/08/08 06:35:15;;;;;;;1.05;1.00;;;25.00;34.10;;;;;;5107188;27;45422;-71
2022/08/08 06:37:46;;;;;;;1.33;1.23;;;24.90;34.10;;;;;;5106894;27;45247;-72
2022/08/08 06:40:14;;;;;;;0.80;0.80;;;24.90;34.10;;;;;;5106948;27;45268;-71
2022/08/08 06:42:46;;;;;;;1.10;1.00;;;25.00;34.20;;;;;;5107194;27;45289;-72
2022/08/08 06:45:14;;;;;;;1.13;1.13;;;25.00;34.20;;;;;;5107179;27;45217;-72
2022/08/08 06:47:44;;;;;;;1.08;1.08;;;25.00;34.20;;;;;;5106690;27;45475;-72
2022/08/08 06:50:11;;;;;;;0.90;0.90;;;25.00;34.20;;;;;;5106904;27;45199;-72
2022/08/08 06:52:39;;;;;;;0.95;0.93;;;25.00;34.20;;;;;;5106968;27;45181;-72
2022/08/08 06:55:07;;;;;;;1.05;0.98;;;25.00;34.10;;;;;;5107077;27;45282;-71
2022/08/08 06:57:34;;;;;;;1.42;0.90;;;25.00;34.20;;;;;;5106716;27;46571;-71
2022/08/08 07:00:01;;;;;;;1.10;1.00;;;25.00;34.20;;;;;;5106551;27;45272;-71
2022/08/08 07:02:32;;;;;;;1.30;1.00;;;25.00;34.30;;;;;;5106510;27;45218;-71
2022/08/08 07:05:03;;;;;;;1.15;1.05;;;25.00;34.30;;;;;;5106879;27;45312;-72
2022/08/08 07:07:33;;;;;;;1.15;1.05;;;25.00;34.30;;;;;;5106388;27;45386;-71
2022/08/08 07:10:02;;;;;;;0.95;0.95;;;25.00;34.30;;;;;;5106568;27;45217;-72
2022/08/08 07:12:34;;;;;;;1.55;1.27;;;25.10;34.40;;;;;;5106638;27;45377;-71
2022/08/08 07:15:06;;;;;;;1.00;1.00;;;25.10;34.40;;;;;;5106860;27;45407;-72
2022/08/08 07:17:36;;;;;;;1.40;1.05;;;25.10;34.40;;;;;;5106388;27;47306;-71
2022/08/08 07:20:04;;;;;;;1.00;1.00;;;25.10;34.40;;;;;;5113146;27;45180;-71
2022/08/08 07:22:35;;;;;;;0.82;0.82;;;25.10;34.40;;;;;;5127203;27;45410;-72
2022/08/08 07:25:04;;;;;;;1.20;1.10;;;25.10;34.40;;;;;;5127386;27;45179;-71
2022/08/08 07:27:34;;;;;;;1.00;0.95;;;25.10;34.40;;;;;;5126691;27;45571;-71
2022/08/08 07:30:01;;;;;;;0.80;0.80;;;25.20;34.50;;;;;;5117297;27;45176;-71
2022/08/08 07:32:28;;;;;;;1.10;1.00;;;25.20;34.50;;;;;;5106375;27;45284;-71
2022/08/08 07:34:56;;;;;;;1.40;1.00;;;25.20;34.50;;;;;;5106483;27;45296;-72
2022/08/08 07:37:23;;;;;;;1.17;1.00;;;25.20;34.50;;;;;;5105832;27;46363;-71
2022/08/08 07:39:50;;;;;;;1.05;0.90;;;25.20;34.50;;;;;;5106293;27;45142;-72
2022/08/08 07:42:17;;;;;;;0.70;0.70;;;25.20;34.50;;;;;;5106347;27;45207;-72
2022/08/08 07:44:44;;;;;;;1.30;0.93;;;25.20;34.60;;;;;;5108972;27;45242;-71
2022/08/08 07:47:10;;;;;;;0.88;0.88;;;25.20;34.60;;;;;;5109647;27;46407;-71
2022/08/08 07:49:38;;;;;;;1.15;1.10;;;25.30;34.70;;;;;;5109765;27;45228;-72
2022/08/08 07:52:06;;;;;;;1.00;1.00;;;25.30;34.70;;;;;;5109864;27;45255;-72
2022/08/08 07:54:37;;;;;;;0.90;0.90;;;25.30;34.70;;;;;;5109880;27;45235;-72
2022/08/08 07:57:09;;;;;;;0.80;0.80;;;25.20;34.70;;;;;;5109459;27;46324;-72
2022/08/08 07:59:55;;;;;;;0.80;0.80;;;25.30;34.80;;;;;;5109372;27;45373;-72
2022/08/08 08:02:22;;;;;;;0.98;0.98;;;25.30;34.80;;;;;;5109580;27;45157;-71
2022/08/08 08:04:49;;;;;;;0.85;0.85;;;25.30;34.80;;;;;;5109864;27;45347;-71
2022/08/08 08:07:17;;;;;;;2.10;0.85;;;25.30;34.80;;;;;;5109222;27;46404;-72
2022/08/08 08:09:44;;;;;;;1.50;1.00;;;25.30;34.80;;;;;;5109383;27;45286;-71
2022/08/08 08:12:12;;;;;;;1.17;0.90;;;25.30;34.80;;;;;;5109463;27;45394;-71
2022/08/08 08:14:46;;;;;;;0.82;0.82;;;25.30;34.80;;;;;;5109631;27;45296;-72
2022/08/08 08:17:14;;;;;;;0.90;0.90;;;25.30;34.90;;;;;;5109086;27;46431;-71
2022/08/08 08:19:41;;;;;;;0.90;0.80;;;25.40;34.90;;;;;;5112671;27;45145;-72
2022/08/08 08:22:07;;;;;;;1.05;0.88;;;25.40;34.90;;;;;;5130085;27;45214;-72
2022/08/08 08:24:36;;;;;;;0.90;0.90;;;25.40;34.80;;;;;;5130060;27;45385;-72
2022/08/08 08:27:03;;;;;;;0.85;0.80;;;25.50;34.90;;;;;;5129227;27;46478;-71
2022/08/08 08:29:29;;;;;;;1.00;1.00;;;25.50;34.90;;;;;;5124623;27;45367;-72
2022/08/08 08:31:56;;;;;;;0.80;0.80;;;25.50;34.90;;;;;;5109106;27;45137;-72
2022/08/08 08:34:23;;;;;;;3.28;0.90;;;25.50;34.80;;;;;;5109203;27;45391;-71
2022/08/08 08:36:50;;;;;;;0.85;0.85;;;25.50;34.80;;;;;;5108471;27;45273;-71
2022/08/08 08:39:17;;;;;;;1.48;0.80;;;25.50;34.80;;;;;;5108833;27;45336;-71
2022/08/08 08:41:45;;;;;;;1.02;0.82;;;25.50;34.80;;;;;;5108708;27;45295;-72
2022/08/08 08:44:11;;;;;;;0.80;0.80;;;25.60;34.80;;;;;;5109005;27;45401;-72
2022/08/08 08:46:38;;;;;;;1.33;0.93;;;25.60;34.80;;;;;;5108458;27;45264;-72
2022/08/08 08:49:05;;;;;;;3.90;1.48;;;25.60;34.80;;;;;;5108696;27;45373;-71
2022/08/08 08:51:32;;;;;;;2.92;1.25;;;25.60;36.00;;;;;;5108812;27;45247;-72
2022/08/08 08:54:01;;;;;;;3.63;1.20;;;25.60;36.60;;;;;;5107264;27;45394;-71
2022/08/08 08:56:27;;;;;;;3.30;1.40;;;25.60;37.10;;;;;;5108148;27;45472;-72
2022/08/08 08:58:56;;;;;;;1.60;1.20;;;25.60;37.20;;;;;;5108329;27;45253;-72
2022/08/08 09:01:26;;;;;;;1.13;1.02;;;25.60;37.30;;;;;;5108339;27;45317;-71
2022/08/08 09:03:55;;;;;;;4.97;1.20;;;25.50;37.40;;;;;;5108516;27;45222;-72
2022/08/08 09:06:25;;;;;;;2.70;1.20;;;25.50;37.40;;;;;;5106711;27;45464;-71
2022/08/08 09:08:57;;;;;;;3.20;1.20;;;25.60;37.40;;;;;;5107979;27;45211;-70
2022/08/08 09:11:25;;;;;;;1.10;0.90;;;25.60;37.40;;;;;;5107028;27;45420;-71
2022/08/08 09:13:58;;;;;;;1.85;0.98;;;25.60;37.30;;;;;;5108573;27;45182;-71
2022/08/08 09:16:26;;;;;;;3.65;1.10;;;25.70;37.20;;;;;;5107532;27;45150;-71
2022/08/08 09:18:57;;;;;;;1.00;1.00;;;25.70;37.10;;;;;;5107806;27;45191;-71
2022/08/08 09:21:24;;;;;;;2.13;1.38;;;25.70;37.30;;;;;;5125704;27;45431;-71
2022/08/08 09:23:51;;;;;;;3.55;1.30;;;25.70;37.20;;;;;;5124515;27;45332;-72
2022/08/08 09:26:21;;;;;;;1.10;1.00;;;25.80;37.30;;;;;;5128439;27;47279;-72
2022/08/08 09:28:47;;;;;;;2.42;1.40;;;25.90;37.40;;;;;;5128625;27;45379;-72
2022/08/08 09:31:16;;;;;;;2.42;1.27;;;25.90;37.50;;;;;;5128346;27;45266;-71
2022/08/08 09:33:45;;;;;;;1.85;1.15;;;26.00;37.40;;;;;;5128852;27;45223;-72
2022/08/08 09:36:16;;;;;;;1.60;1.50;;;26.00;37.30;;;;;;5127920;27;47569;-71
2022/08/08 09:38:46;;;;;;;1.20;1.10;;;26.00;37.00;;;;;;5128846;27;45247;-72
2022/08/08 09:41:13;;;;;;;2.90;1.15;;;26.00;36.90;;;;;;5128658;27;45300;-72
2022/08/08 09:43:47;;;;;;;4.63;1.30;;;26.10;37.00;;;;;;5125861;27;45312;-71
2022/08/08 09:46:15;;;;;;;2.33;1.20;;;26.10;37.10;;;;;;5128543;27;46957;-71
2022/08/08 09:48:44;;;;;;;2.05;1.20;;;26.20;37.20;;;;;;5128402;27;45244;-72
2022/08/08 09:51:11;;;;;;;1.00;1.00;;;26.30;37.10;;;;;;5128505;27;45179;-72
2022/08/08 09:53:42;;;;;;;1.65;1.20;;;26.30;36.70;;;;;;5128775;27;45466;-72
2022/08/08 09:56:10;;;;;;;1.23;1.10;;;26.30;36.40;;;;;;5128121;27;45336;-71
2022/08/08 09:58:38;;;;;;;0.95;0.93;;;26.40;36.90;;;;;;5128080;27;45285;-71
2022/08/08 10:01:06;;;;;;;2.63;1.00;;;26.40;37.20;;;;;;5128178;27;45333;-71
2022/08/08 10:03:35;;;;;;;1.42;1.08;;;26.50;37.60;;;;;;5128368;27;45441;-72
2022/08/08 10:06:13;;;;;;;1.83;1.15;;;26.60;37.60;;;;;;5121420;27;46922;-71
2022/08/08 10:08:43;;;;;;;1.30;1.20;;;26.60;37.60;;;;;;5118831;27;45260;-71
2022/08/08 10:11:10;;;;;;;3.47;1.27;;;26.70;37.30;;;;;;5128494;27;45193;-72
2022/08/08 10:13:37;;;;;;;2.45;0.98;;;26.80;37.20;;;;;;5128484;27;45260;-72
2022/08/08 10:16:04;;;;;;;2.30;1.10;;;26.80;37.50;;;;;;5128100;27;45365;-72
2022/08/08 10:18:32;;;;;;;1.38;1.20;;;26.80;37.40;;;;;;5127357;27;45198;-72
2022/08/08 10:21:02;;;;;;;2.22;1.23;;;26.90;37.30;;;;;;5128114;27;45187;-72
2022/08/08 10:23:40;;;;;;;0.90;0.90;;;27.00;37.60;;;;;;5127942;27;45223;-71
2022/08/08 10:26:08;;;;;;;0.85;0.80;;;27.00;37.60;;;;;;5127645;27;46352;-72
2022/08/08 10:28:36;;;;;;;1.77;1.10;;;27.10;37.50;;;;;;5127893;27;45207;-72
2022/08/08 10:32:30;;;;;;;1.92;1.55;;;27.20;37.60;;;;;;5109580;27;45357;-71
2022/08/08 10:33:55;;;;;;;2.95;1.30;;;27.20;37.50;;;;;;5106723;27;45409;-70
2022/08/08 10:36:25;;;;;;;1.45;1.25;;;27.30;37.20;;;;;;5106650;27;46392;-71
2022/08/08 10:38:52;;;;;;;1.02;1.02;;;27.40;37.50;;;;;;5107103;27;45276;-71
2022/08/08 10:41:19;;;;;;;1.00;1.00;;;27.40;37.20;;;;;;5107282;27;45193;-72
2022/08/08 10:43:45;;;;;;;2.17;1.13;;;27.50;37.40;;;;;;5107280;27;45618;-71
2022/08/08 10:46:30;;;;;;;1.00;1.00;;;27.50;37.60;;;;;;5106826;27;45548;-71
2022/08/08 10:48:57;;;;;;;0.80;0.80;;;27.60;37.30;;;;;;5114043;27;45327;-73
2022/08/08 10:51:26;;;;;;;1.50;1.13;;;27.70;37.00;;;;;;5128246;27;45318;-71
2022/08/08 10:53:54;;;;;;;4.00;1.10;;;27.80;36.70;;;;;;5127820;27;45316;-71
2022/08/08 10:56:20;;;;;;;1.20;1.10;;;27.90;36.60;;;;;;5127036;27;46477;-71
2022/08/08 10:58:47;;;;;;;1.85;0.95;;;27.90;36.70;;;;;;5127507;27;45252;-71
2022/08/08 11:01:14;;;;;;;1.20;1.10;;;28.00;36.40;;;;;;5127364;27;45244;-71
2022/08/08 11:03:42;;;;;;;1.20;1.10;;;28.10;35.90;;;;;;5127864;27;45349;-71
2022/08/08 11:06:08;;;;;;;2.30;1.10;;;28.10;35.40;;;;;;5127153;27;46751;-71
2022/08/08 11:08:37;;;;;;;1.92;1.00;;;28.20;34.90;;;;;;5127216;27;45130;-72
2022/08/08 11:11:04;;;;;;;1.60;0.93;;;28.20;34.80;;;;;;5127649;27;45242;-71
2022/08/08 11:13:38;;;;;;;1.70;1.17;;;28.30;34.50;;;;;;5127855;27;45203;-72
2022/08/08 11:16:05;;;;;;;1.40;1.30;;;28.30;34.30;;;;;;5127009;27;46875;-71
2022/08/08 11:18:32;;;;;;;2.58;1.00;;;28.40;34.10;;;;;;5127929;27;45328;-71
2022/08/08 11:20:59;;;;;;;1.13;1.02;;;28.40;34.00;;;;;;5116106;27;45217;-71
2022/08/08 11:23:25;;;;;;;1.20;1.20;;;28.50;33.70;;;;;;5110248;27;45184;-71
2022/08/08 11:25:54;;;;;;;3.85;1.30;;;28.50;33.30;;;;;;5109570;27;45307;-71
2022/08/08 11:28:24;;;;;;;1.42;1.20;;;28.60;33.50;;;;;;5110072;27;45298;-70
2022/08/08 11:30:50;;;;;;;1.10;1.00;;;28.60;33.30;;;;;;5125888;27;45299;-71
2022/08/08 11:33:17;;;;;;;1.83;0.90;;;28.70;33.30;;;;;;5130840;27;45429;-72
2022/08/08 11:35:44;;;;;;;2.83;1.15;;;28.70;33.00;;;;;;5130390;27;46539;-71
2022/08/08 11:38:13;;;;;;;1.70;1.17;;;28.80;32.40;;;;;;5130577;27;45289;-71
2022/08/08 11:40:39;;;;;;;2.20;1.15;;;28.80;32.30;;;;;;5130734;27;45334;-71
2022/08/08 11:43:09;;;;;;;1.25;1.10;;;28.90;32.30;;;;;;5130698;27;45383;-71
2022/08/08 11:45:36;;;;;;;2.72;1.20;;;29.00;32.10;;;;;;5130591;27;46344;-71
2022/08/08 11:48:03;;;;;;;2.70;1.33;;;29.00;31.80;;;;;;5130601;27;45163;-71
2022/08/08 11:50:31;;;;;;;1.85;1.15;;;29.10;31.70;;;;;;5130805;27;45180;-72
2022/08/08 11:52:57;;;;;;;1.70;0.90;;;29.10;31.30;;;;;;5130485;27;45449;-71
2022/08/08 11:55:26;;;;;;;1.17;1.10;;;29.20;31.20;;;;;;5130280;27;45280;-71
2022/08/08 11:58:00;;;;;;;1.17;1.17;;;29.20;31.20;;;;;;5130587;27;45159;-71
2022/08/08 12:00:29;;;;;;;1.20;1.10;;;29.30;30.90;;;;;;5130307;27;45318;-71
2022/08/08 12:02:56;;;;;;;1.13;1.00;;;29.30;30.90;;;;;;5129585;27;45319;-72
2022/08/08 12:05:31;;;;;;;1.52;1.00;;;29.40;30.90;;;;;;5130538;27;47565;-72
2022/08/08 12:07:58;;;;;;;1.02;1.00;;;29.50;30.80;;;;;;5130129;27;45297;-72
2022/08/08 12:10:26;;;;;;;2.22;1.10;;;29.50;30.60;;;;;;5130392;27;45348;-71
2022/08/08 12:13:00;;;;;;;3.92;1.02;;;29.60;30.20;;;;;;5130423;27;45427;-73
2022/08/08 12:15:29;;;;;;;1.25;1.15;;;29.60;30.30;;;;;;5130281;27;45404;-73
2022/08/08 12:17:56;;;;;;;3.20;1.30;;;29.60;30.10;;;;;;5130197;27;45228;-72
2022/08/08 12:20:23;;;;;;;2.28;1.08;;;29.70;30.00;;;;;;5129645;27;45326;-72
2022/08/08 12:22:51;;;;;;;2.30;1.10;;;29.70;30.00;;;;;;5129972;27;45422;-72
2022/08/08 12:25:22;;;;;;;1.80;0.93;;;29.80;29.90;;;;;;5129787;27;45480;-72
2022/08/08 12:27:49;;;;;;;1.85;0.90;;;29.80;29.80;;;;;;5129901;27;45472;-72
2022/08/08 12:30:15;;;;;;;1.65;1.23;;;29.90;29.90;;;;;;5129515;27;45451;-71
2022/08/08 12:32:45;;;;;;;2.00;1.30;;;29.90;29.90;;;;;;5130162;27;45442;-71
2022/08/08 12:35:21;;;;;;;1.48;1.00;;;30.00;29.90;;;;;;5129574;27;45806;-72
2022/08/08 12:38:00;;;;;;;3.03;1.20;;;30.00;29.90;;;;;;5129834;27;45320;-73
2022/08/08 12:40:36;;;;;;;1.73;1.15;;;30.10;30.50;;;;;;5130125;27;45274;-72
2022/08/08 12:43:03;;;;;;;2.40;1.00;;;30.20;29.60;;;;;;5129961;27;45267;-73
2022/08/08 12:45:33;;;;;;;2.15;1.10;;;30.20;29.70;;;;;;5129825;27;46437;-72
2022/08/08 12:48:02;;;;;;;2.47;1.10;;;30.30;29.60;;;;;;5129710;27;45317;-74
2022/08/08 12:50:38;;;;;;;1.95;1.10;;;30.30;29.50;;;;;;5129924;27;45190;-72
2022/08/08 12:53:16;;;;;;;1.42;1.13;;;30.40;29.40;;;;;;5130137;27;45257;-73
2022/08/08 12:55:52;;;;;;;2.35;1.13;;;30.40;29.20;;;;;;5129391;27;46368;-71
2022/08/08 12:58:19;;;;;;;1.35;0.98;;;30.50;29.00;;;;;;5129373;27;45425;-71
2022/08/08 13:00:45;;;;;;;1.83;1.27;;;30.60;29.20;;;;;;5129459;27;45315;-72
2022/08/08 13:03:24;;;;;;;2.83;1.27;;;30.60;29.00;;;;;;5129558;27;45457;-72
2022/08/08 13:06:02;;;;;;;0.98;0.98;;;30.70;29.20;;;;;;5129279;27;45222;-71
2022/08/08 13:08:39;;;;;;;2.65;1.00;;;30.80;29.10;;;;;;5129245;27;45340;-71
2022/08/08 13:11:15;;;;;;;1.15;1.05;;;30.80;29.00;;;;;;5128965;27;45220;-71
2022/08/08 13:13:43;;;;;;;1.25;1.10;;;30.90;28.80;;;;;;5129527;27;45331;-71
2022/08/08 13:16:19;;;;;;;1.33;1.10;;;30.90;28.70;;;;;;5129278;27;45456;-71
2022/08/08 13:18:47;;;;;;;5.25;1.10;;;31.00;28.80;;;;;;5129167;27;45329;-72
2022/08/08 13:21:14;;;;;;;1.00;1.00;;;31.00;28.70;;;;;;5112351;27;45374;-73
2022/08/08 13:23:41;;;;;;;1.33;1.20;;;31.10;28.80;;;;;;5108572;27;45529;-72